Time;durP1;ratioP1;P1;durP2;ratioP2;P2;SDS_P1;SDS_P2;PMS_P1;PMS_P2;Temp;Humidity;BMP_temperature;BMP_pressure;BME280_temperature;BME280_humidity;BME280_pressure;Samples;Min_cycle;Max_cycle;Signal;HPM_P1;HPM_P2
2023/10/15 00:00:16;;;;;;;9.15;1.95;;;7.30;99.90;;;6.90;100.00;100638.09;5048377;28;20122;-84
2023/10/15 00:02:43;;;;;;;9.70;2.10;;;7.30;99.90;;;6.96;100.00;100642.75;5055493;28;20079;-82
2023/10/15 00:05:15;;;;;;;10.10;2.22;;;7.30;99.90;;;6.99;100.00;100645.06;5032125;28;20175;-82
2023/10/15 00:07:47;;;;;;;16.95;2.20;;;7.40;99.90;;;6.89;100.00;100630.97;5031730;28;20044;-83
2023/10/15 00:10:15;;;;;;;18.00;2.38;;;7.40;99.90;;;6.96;100.00;100648.19;5037531;28;20468;-83
2023/10/15 00:12:49;;;;;;;12.43;2.13;;;7.40;99.90;;;6.93;100.00;100648.56;5037345;28;20492;-82
2023/10/15 00:15:20;;;;;;;11.50;2.03;;;7.30;99.90;;;6.89;100.00;100649.97;5031923;28;20037;-81
2023/10/15 00:17:47;;;;;;;11.45;2.15;;;7.20;99.90;;;6.84;100.00;100647.84;5035588;28;20025;-82
2023/10/15 00:20:17;;;;;;;17.67;3.70;;;7.20;99.90;;;6.86;100.00;100653.06;5031597;28;20073;-82
2023/10/15 00:22:49;;;;;;;12.10;1.67;;;7.20;99.90;;;6.78;100.00;100645.91;5033281;28;20108;-82
2023/10/15 00:25:21;;;;;;;12.13;2.08;;;7.20;99.90;;;6.78;100.00;100659.47;5037514;28;20037;-83
2023/10/15 00:27:52;;;;;;;8.43;1.73;;;7.10;99.90;;;6.73;100.00;100654.59;5031906;28;20440;-83
2023/10/15 00:30:19;;;;;;;9.52;2.03;;;7.10;99.90;;;6.72;100.00;100650.22;5031556;28;20152;-82
2023/10/15 00:32:47;;;;;;;15.30;2.08;;;7.10;99.90;;;6.74;100.00;100650.84;5031608;28;20045;-82
2023/10/15 00:35:14;;;;;;;;;;;7.20;99.90;;;6.74;100.00;100658.13;5030573;28;20041;-83
2023/10/15 00:37:41;;;;;;;12.02;2.05;;;7.20;99.90;;;6.80;100.00;100656.53;5032424;28;20066;-81
2023/10/15 00:40:16;;;;;;;8.30;1.85;;;7.20;99.90;;;6.86;100.00;100661.19;5032552;28;20068;-82
2023/10/15 00:42:47;;;;;;;12.45;2.35;;;7.20;99.90;;;6.88;100.00;100661.84;5032503;28;20041;-81
2023/10/15 00:45:20;;;;;;;15.48;2.05;;;7.20;99.90;;;6.95;100.00;100664.63;5033419;28;20533;-83
2023/10/15 00:50:42;;;;;;;14.52;2.13;;;7.40;99.90;;;6.99;100.00;100650.50;5039594;28;20037;-83
2023/10/15 00:53:23;;;;;;;11.07;2.05;;;7.40;99.90;;;7.03;100.00;100649.06;5031741;28;20042;-83
2023/10/15 00:56:04;;;;;;;10.32;1.77;;;7.40;99.90;;;7.02;100.00;100644.69;5031165;28;20063;-84
2023/10/15 01:03:48;;;;;;;12.02;2.53;;;7.30;99.90;;;6.94;100.00;100646.69;5036152;28;20047;-82
2023/10/15 01:06:30;;;;;;;7.97;1.80;;;7.30;99.90;;;6.87;100.00;100646.59;5034059;28;20065;-82
2023/10/15 01:09:08;;;;;;;13.98;2.50;;;7.20;99.90;;;6.86;100.00;100645.78;5033848;28;20034;-82
2023/10/15 01:11:37;;;;;;;17.95;2.90;;;7.20;99.90;;;6.81;100.00;100642.81;5033495;28;20084;-81
2023/10/15 01:14:03;;;;;;;10.70;1.65;;;7.20;99.90;;;6.81;100.00;100633.81;5032027;28;20121;-81
2023/10/15 01:16:35;;;;;;;10.63;1.60;;;7.20;99.90;;;6.78;100.00;100643.19;5034798;28;20115;-81
2023/10/15 01:19:35;;;;;;;11.65;1.70;;;7.20;99.90;;;6.76;100.00;100637.94;5033896;28;20041;-82
2023/10/15 01:21:57;;;;;;;13.77;2.10;;;7.10;99.90;;;6.70;100.00;100632.44;5035786;28;20123;-82
2023/10/15 01:24:32;;;;;;;13.38;2.25;;;7.00;99.90;;;6.67;100.00;100632.84;5033913;28;20488;-81
2023/10/15 01:27:11;;;;;;;7.72;1.88;;;7.00;99.90;;;6.66;100.00;100628.44;5031853;28;20143;-82
2023/10/15 01:29:48;;;;;;;13.07;2.13;;;7.00;99.90;;;6.65;100.00;100630.31;5054188;28;20452;-82
2023/10/15 01:32:18;;;;;;;13.80;2.17;;;7.00;99.90;;;6.67;100.00;100624.69;5035908;28;20037;-83
2023/10/15 01:34:45;;;;;;;13.80;2.17;;;7.00;99.90;;;6.67;100.00;100620.13;5058000;28;20037;-83
2023/10/15 01:39:53;;;;;;;11.52;1.70;;;7.10;99.90;;;6.72;100.00;100619.53;5035674;28;20381;-83
2023/10/15 01:42:41;;;;;;;19.42;2.70;;;7.10;99.90;;;6.71;100.00;100617.84;5043380;28;20029;-82
2023/10/15 01:45:16;;;;;;;9.18;1.92;;;7.10;99.90;;;6.74;100.00;100629.16;5041454;28;20481;-83
2023/10/15 01:50:23;;;;;;;10.63;1.70;;;7.10;99.90;;;6.86;100.00;100629.50;5050166;28;20366;-82
2023/10/15 01:53:01;;;;;;;10.60;1.80;;;7.20;99.90;;;6.95;100.00;100634.78;5038895;28;20048;-82
2023/10/15 01:55:29;;;;;;;8.45;1.92;;;7.30;99.90;;;6.95;100.00;100630.22;5038289;28;20400;-83
2023/10/15 01:58:01;;;;;;;12.98;2.10;;;7.30;99.90;;;7.00;100.00;100618.78;5035500;28;20033;-82
2023/10/15 02:03:10;;;;;;;16.00;2.58;;;7.40;99.90;;;7.02;100.00;100617.56;5034811;28;20033;-83
2023/10/15 02:05:42;;;;;;;11.75;2.38;;;7.40;99.90;;;7.02;100.00;100616.69;5055357;28;20034;-83
2023/10/15 02:08:24;;;;;;;9.38;1.85;;;7.40;99.90;;;6.94;100.00;100611.41;5043858;28;20029;-82
2023/10/15 02:10:52;;;;;;;10.75;1.75;;;7.30;99.90;;;6.94;100.00;100614.97;5034997;28;20056;-83
2023/10/15 02:13:21;;;;;;;7.75;1.63;;;7.40;99.90;;;6.90;100.00;100602.84;5041431;28;20037;-82
2023/10/15 02:15:55;;;;;;;11.05;2.13;;;7.30;99.90;;;6.98;100.00;100620.84;5034230;28;20147;-82
2023/10/15 02:18:21;;;;;;;14.02;1.95;;;7.30;99.90;;;7.08;100.00;100620.53;5035958;28;20427;-83
2023/10/15 02:23:20;;;;;;;12.60;1.90;;;7.50;99.90;;;7.22;100.00;100622.34;5034916;28;20033;-82
2023/10/15 02:25:47;;;;;;;7.07;1.48;;;7.50;99.90;;;7.25;100.00;100626.50;5018649;28;20033;-83
2023/10/15 02:28:17;;;;;;;10.90;2.00;;;7.60;99.90;;;7.25;100.00;100624.66;5037959;28;20106;-83
2023/10/15 02:30:46;;;;;;;13.27;1.67;;;7.60;99.90;;;7.20;100.00;100619.81;5042068;28;20106;-83
2023/10/15 02:33:17;;;;;;;6.97;1.70;;;7.60;99.90;;;7.16;100.00;100623.09;5041583;28;20392;-82
2023/10/15 02:35:45;;;;;;;12.27;1.90;;;7.50;99.90;;;7.10;100.00;100619.31;5038277;28;20041;-83
2023/10/15 02:38:16;;;;;;;10.23;1.70;;;7.40;99.90;;;7.08;100.00;100625.94;5034891;28;20358;-83
2023/10/15 02:43:26;;;;;;;13.77;2.10;;;7.40;99.90;;;7.11;100.00;100631.84;5034099;28;20049;-84
2023/10/15 02:45:53;;;;;;;10.25;1.42;;;7.50;99.90;;;7.12;100.00;100632.66;5034732;28;20041;-84
2023/10/15 02:48:20;;;;;;;8.20;1.80;;;7.50;99.90;;;7.15;100.00;100629.56;5036662;28;20113;-83
2023/10/15 02:51:00;;;;;;;9.68;1.90;;;7.60;99.90;;;7.20;100.00;100640.69;5033773;28;20026;-82
2023/10/15 02:53:33;;;;;;;6.97;1.17;;;7.60;99.90;;;7.25;100.00;100643.66;5041923;28;20171;-84
2023/10/15 02:55:59;;;;;;;11.18;1.77;;;7.60;99.90;;;7.24;100.00;100643.81;5034560;28;20064;-83
2023/10/15 02:58:29;;;;;;;5.53;1.33;;;7.60;99.90;;;7.18;100.00;100643.56;5036542;28;20041;-82
2023/10/15 03:00:59;;;;;;;10.32;1.52;;;7.50;99.90;;;7.15;100.00;100648.53;5035980;28;20038;-83
2023/10/15 03:03:33;;;;;;;5.20;1.30;;;7.50;99.90;;;7.15;100.00;100646.69;5035478;28;20485;-83
2023/10/15 03:05:59;;;;;;;8.35;1.52;;;7.50;99.90;;;7.07;100.00;100635.97;5034942;28;20440;-82
2023/10/15 03:08:31;;;;;;;11.50;1.60;;;7.40;99.90;;;7.04;100.00;100636.38;5051647;28;20041;-83
2023/10/15 03:11:11;;;;;;;6.07;1.42;;;7.40;99.90;;;7.06;100.00;100634.28;5036443;28;20037;-82
2023/10/15 03:13:49;;;;;;;8.68;1.55;;;7.50;99.90;;;7.10;100.00;100635.59;5057318;28;20036;-83
2023/10/15 03:16:20;;;;;;;7.82;1.50;;;7.50;99.90;;;7.18;100.00;100631.91;5038517;28;20047;-83
2023/10/15 03:18:50;;;;;;;7.68;1.48;;;7.60;99.90;;;7.23;100.00;100629.44;5043735;28;20369;-82
2023/10/15 03:21:27;;;;;;;6.82;1.30;;;7.70;99.90;;;7.24;100.00;100625.69;5043810;28;20087;-83
2023/10/15 03:23:58;;;;;;;6.10;1.20;;;7.70;99.90;;;7.24;100.00;100628.41;5039538;28;20067;-82
2023/10/15 03:26:32;;;;;;;8.73;1.20;;;7.60;99.90;;;7.18;100.00;100615.63;5037725;28;20037;-82
2023/10/15 03:28:59;;;;;;;11.43;1.38;;;7.60;99.90;;;7.27;100.00;100625.28;5032990;28;20084;-83
2023/10/15 03:31:27;;;;;;;4.57;1.08;;;7.70;99.90;;;7.30;100.00;100635.75;5033014;28;20511;-82
2023/10/15 03:34:47;;;;;;;8.77;1.40;;;7.70;99.90;;;7.31;100.00;100625.75;5033398;28;20079;-81
2023/10/15 03:36:51;;;;;;;3.75;0.95;;;7.70;99.90;;;7.35;100.00;100629.75;5031964;28;20485;-83
2023/10/15 03:39:25;;;;;;;6.35;1.38;;;7.70;99.90;;;7.30;100.00;100627.63;5031797;28;20420;-83
2023/10/15 03:41:54;;;;;;;6.93;1.40;;;7.70;99.90;;;7.28;100.00;100629.69;5037778;28;20118;-82
2023/10/15 03:44:32;;;;;;;5.80;1.20;;;7.70;99.90;;;7.32;100.00;100638.28;5043212;28;20041;-82
2023/10/15 03:47:04;;;;;;;6.85;1.20;;;7.70;99.90;;;7.32;100.00;100633.69;5033519;28;20124;-83
2023/10/15 03:49:35;;;;;;;6.20;0.95;;;7.70;99.90;;;7.31;100.00;100636.59;5036835;28;20086;-83
2023/10/15 03:52:08;;;;;;;6.57;0.98;;;7.70;99.90;;;7.28;100.00;100636.97;5039845;28;20037;-82
2023/10/15 03:54:37;;;;;;;7.85;1.15;;;7.70;99.90;;;7.31;100.00;100625.75;5056141;28;20194;-81
2023/10/15 03:57:06;;;;;;;8.25;1.23;;;7.70;99.90;;;7.39;100.00;100646.47;5039902;28;20041;-80
2023/10/15 03:59:42;;;;;;;2.97;1.00;;;7.70;99.90;;;7.33;100.00;100634.53;5037126;28;20034;-80
2023/10/15 04:02:11;;;;;;;3.50;0.82;;;7.70;99.90;;;7.39;100.00;100635.59;5035079;28;20041;-81
2023/10/15 04:04:38;;;;;;;6.25;1.10;;;7.70;99.90;;;7.37;100.00;100634.97;5031542;28;20045;-80
2023/10/15 04:07:19;;;;;;;5.93;1.15;;;7.70;99.90;;;7.34;100.00;100642.47;5041590;28;20120;-80
2023/10/15 04:09:45;;;;;;;4.25;1.10;;;7.70;99.90;;;7.30;100.00;100641.19;5042576;28;20044;-81
2023/10/15 04:12:10;;;;;;;5.20;1.05;;;7.70;99.90;;;7.38;100.00;100647.50;5036100;28;20329;-80
2023/10/15 04:14:37;;;;;;;3.78;0.80;;;7.80;99.90;;;7.29;100.00;100628.66;5038180;28;20045;-82
2023/10/15 04:17:06;;;;;;;3.42;0.73;;;7.70;99.90;;;7.37;100.00;100629.53;5046640;28;20480;-82
2023/10/15 04:19:32;;;;;;;5.25;1.10;;;7.70;99.90;;;7.32;100.00;100624.72;5035168;28;20028;-82
2023/10/15 04:22:09;;;;;;;3.75;0.75;;;7.70;99.90;;;7.32;100.00;100627.44;5038552;28;20049;-81
2023/10/15 04:24:36;;;;;;;4.13;1.05;;;7.70;99.90;;;7.24;100.00;100619.41;5044204;28;20033;-82
2023/10/15 04:27:24;;;;;;;3.60;1.08;;;7.60;99.90;;;7.22;100.00;100622.34;5036814;28;20034;-81
2023/10/15 04:29:51;;;;;;;2.78;0.70;;;7.60;99.90;;;7.12;100.00;100619.09;5037038;28;20060;-82
2023/10/15 04:32:28;;;;;;;2.95;0.60;;;7.60;99.90;;;7.10;100.00;100618.44;5055120;28;20036;-81
2023/10/15 04:35:11;;;;;;;4.35;0.90;;;7.50;99.90;;;7.11;100.00;100628.25;5041309;28;20036;-81
2023/10/15 04:37:37;;;;;;;3.13;0.70;;;7.50;99.90;;;7.09;100.00;100628.47;5048583;28;20478;-81
2023/10/15 04:40:05;;;;;;;2.45;0.73;;;7.60;99.90;;;7.13;100.00;100628.91;5030172;28;20120;-81
2023/10/15 04:42:48;;;;;;;4.05;0.93;;;7.50;99.90;;;7.03;100.00;100623.84;5053042;28;20032;-81
2023/10/15 04:45:23;;;;;;;4.50;0.85;;;7.50;99.90;;;6.98;100.00;100616.28;5042804;28;20029;-82
2023/10/15 04:48:02;;;;;;;5.30;0.98;;;7.40;99.90;;;6.96;100.00;100610.19;5041955;28;20037;-81
2023/10/15 04:50:35;;;;;;;3.72;0.98;;;7.40;99.90;;;6.96;100.00;100629.19;5031849;28;20496;-82
2023/10/15 04:56:01;;;;;;;3.85;0.77;;;7.30;99.90;;;6.91;100.00;100634.34;5011405;28;20054;-80
2023/10/15 04:58:29;;;;;;;5.22;0.93;;;7.30;99.90;;;6.91;100.00;100645.22;5031464;28;20033;-82
2023/10/15 05:01:00;;;;;;;3.53;0.60;;;7.30;99.90;;;6.94;100.00;100636.69;5031709;28;20041;-81
2023/10/15 05:03:26;;;;;;;4.78;0.93;;;7.40;99.90;;;6.94;100.00;100633.97;5042486;28;20064;-82
2023/10/15 05:05:53;;;;;;;3.65;0.82;;;7.30;99.90;;;6.91;100.00;100629.75;5035975;28;20037;-81
2023/10/15 05:08:20;;;;;;;4.53;0.80;;;7.40;99.90;;;6.96;100.00;100640.03;5039776;28;20354;-81
2023/10/15 05:10:52;;;;;;;4.93;0.70;;;7.40;99.90;;;6.87;100.00;100631.19;5038229;28;20037;-80
2023/10/15 05:13:19;;;;;;;6.30;1.05;;;7.30;99.90;;;6.88;100.00;100645.56;5035396;28;20511;-84
2023/10/15 05:15:48;;;;;;;3.53;0.77;;;7.30;99.90;;;6.83;100.00;100634.47;5045007;28;20033;-86
2023/10/15 05:18:20;;;;;;;4.13;0.90;;;7.20;99.90;;;6.70;100.00;100630.59;5035054;28;20088;-81
2023/10/15 05:20:48;;;;;;;4.90;0.70;;;7.20;99.90;;;6.59;100.00;100617.50;5041760;28;20053;-79
2023/10/15 05:23:16;;;;;;;;;;;7.10;99.90;;;6.67;100.00;100627.41;5054501;28;20098;-79
2023/10/15 05:25:42;;;;;;;3.28;0.80;;;7.10;99.90;;;6.57;100.00;100625.00;5050326;28;19972;-78
2023/10/15 05:28:13;;;;;;;3.80;0.90;;;7.00;99.90;;;6.48;100.00;100632.41;5050304;28;20057;-79
2023/10/15 05:30:39;;;;;;;5.18;0.93;;;6.90;99.90;;;6.44;100.00;100623.81;5035014;28;20037;-79
2023/10/15 05:33:06;;;;;;;5.13;0.95;;;6.80;99.90;;;6.33;100.00;100632.44;5034915;28;20075;-81
2023/10/15 05:35:34;;;;;;;3.75;0.82;;;6.70;99.90;;;6.36;100.00;100631.22;5033368;28;20040;-77
2023/10/15 05:38:08;;;;;;;3.53;0.90;;;6.70;99.90;;;6.30;100.00;100613.84;5050023;28;20025;-77
2023/10/15 05:40:35;;;;;;;5.45;0.75;;;6.70;99.90;;;6.31;100.00;100621.78;5035567;28;20042;-80
2023/10/15 05:43:01;;;;;;;6.22;1.05;;;6.70;99.90;;;6.18;100.00;100617.03;5035144;28;20049;-85
2023/10/15 05:45:27;;;;;;;7.50;0.68;;;6.70;99.90;;;6.21;100.00;100623.94;5034518;28;20045;-79
2023/10/15 05:47:52;;;;;;;3.38;0.90;;;6.70;99.90;;;6.18;100.00;100629.72;5039430;28;20041;-79
2023/10/15 05:50:18;;;;;;;4.75;1.13;;;6.60;99.90;;;6.12;100.00;100634.06;5038396;28;20038;-79
2023/10/15 05:52:45;;;;;;;5.45;1.00;;;6.50;99.90;;;6.04;100.00;100631.44;5039516;28;20037;-79
2023/10/15 05:55:11;;;;;;;4.75;1.00;;;6.50;99.90;;;6.09;100.00;100629.00;5034693;28;20040;-80
2023/10/15 05:57:39;;;;;;;4.85;0.82;;;6.50;99.90;;;6.09;100.00;100620.03;5034539;28;20025;-80
2023/10/15 06:00:18;;;;;;;4.13;0.80;;;6.50;99.90;;;6.07;100.00;100631.03;5032114;28;20406;-79
2023/10/15 06:02:48;;;;;;;6.65;1.02;;;6.60;99.90;;;6.17;100.00;100647.03;5032655;28;20676;-78
2023/10/15 06:05:14;;;;;;;2.42;0.80;;;6.50;99.90;;;6.14;100.00;100652.81;5037130;28;20551;-80
2023/10/15 06:07:41;;;;;;;2.40;0.55;;;6.60;99.90;;;6.19;100.00;100653.09;5032663;28;20068;-80
2023/10/15 06:10:11;;;;;;;4.40;0.80;;;6.60;99.90;;;6.14;100.00;100634.72;5043052;28;20037;-80
2023/10/15 06:12:41;;;;;;;3.97;0.60;;;6.60;99.90;;;6.13;100.00;100638.44;5035048;28;20111;-79
2023/10/15 06:15:09;;;;;;;2.95;0.77;;;6.60;99.90;;;6.21;100.00;100642.06;5033208;28;20053;-79
2023/10/15 06:17:36;;;;;;;3.30;0.57;;;6.60;99.90;;;6.13;100.00;100629.47;5049146;28;20115;-79
2023/10/15 06:20:12;;;;;;;3.80;0.70;;;6.70;99.90;;;6.27;100.00;100653.00;5039745;28;20034;-79
2023/10/15 06:22:46;;;;;;;4.10;0.77;;;6.70;99.90;;;6.29;100.00;100660.94;5051763;28;20418;-80
2023/10/15 06:25:17;;;;;;;2.97;0.60;;;6.70;99.90;;;6.26;100.00;100661.31;5038357;28;20147;-79
2023/10/15 06:27:43;;;;;;;4.45;0.70;;;6.70;99.90;;;6.27;100.00;100671.97;5033933;28;20047;-78
2023/10/15 06:30:17;;;;;;;3.13;0.80;;;6.70;99.90;;;6.26;100.00;100664.03;5039232;28;20112;-77
2023/10/15 06:32:43;;;;;;;2.75;0.57;;;6.70;99.90;;;6.26;100.00;100683.00;5053152;28;20488;-79
2023/10/15 06:35:14;;;;;;;2.90;0.70;;;6.80;99.90;;;6.35;100.00;100676.44;5049114;28;20041;-79
2023/10/15 06:37:41;;;;;;;3.17;0.80;;;6.80;99.90;;;6.38;100.00;100688.78;5049425;28;20483;-79
2023/10/15 06:40:10;;;;;;;5.53;1.10;;;6.80;99.90;;;6.39;100.00;100688.59;5034867;28;20037;-78
2023/10/15 06:42:36;;;;;;;2.78;0.60;;;6.80;99.90;;;6.38;100.00;100686.91;5034246;28;20095;-78
2023/10/15 06:45:06;;;;;;;3.88;0.63;;;6.80;99.90;;;6.51;100.00;100701.66;5033769;28;20041;-78
2023/10/15 06:47:33;;;;;;;3.28;0.63;;;7.00;99.90;;;6.62;100.00;100703.88;5055253;28;20489;-78
2023/10/15 06:49:59;;;;;;;5.43;0.90;;;7.00;99.90;;;6.69;100.00;100706.69;5034164;28;20072;-78
2023/10/15 06:52:25;;;;;;;4.03;0.73;;;7.10;99.90;;;6.79;100.00;100698.25;5034092;28;20045;-78
2023/10/15 06:54:51;;;;;;;1.83;0.68;;;7.20;99.90;;;6.91;100.00;100715.72;5033312;28;20033;-79
2023/10/15 06:57:16;;;;;;;2.38;0.70;;;7.30;99.90;;;6.99;100.00;100710.19;5047249;28;20084;-77
2023/10/15 06:59:45;;;;;;;2.55;0.60;;;7.40;99.90;;;7.05;100.00;100709.41;5033335;28;20047;-78
2023/10/15 07:02:13;;;;;;;2.83;0.70;;;7.50;99.90;;;7.10;100.00;100706.13;5034483;28;20385;-79
2023/10/15 07:04:39;;;;;;;1.48;0.60;;;7.50;99.90;;;7.01;100.00;100694.53;5034009;28;20123;-78
2023/10/15 07:07:05;;;;;;;1.80;0.60;;;7.50;99.90;;;7.01;100.00;100697.25;5034601;28;20048;-79
2023/10/15 07:09:32;;;;;;;4.35;0.82;;;7.50;99.90;;;6.99;100.00;100703.91;5051164;28;20056;-77
2023/10/15 07:12:01;;;;;;;3.20;0.60;;;7.50;99.90;;;7.08;100.00;100710.91;5032224;28;20144;-79
2023/10/15 07:14:27;;;;;;;3.22;0.65;;;7.50;99.90;;;7.01;100.00;100707.25;5033695;28;20112;-79
2023/10/15 07:16:52;;;;;;;4.05;0.80;;;7.60;99.90;;;7.10;100.00;100707.97;5033860;28;20116;-79
2023/10/15 07:19:18;;;;;;;3.80;0.82;;;7.60;99.90;;;7.23;100.00;100720.84;5033360;28;20032;-79
2023/10/15 07:21:44;;;;;;;1.73;0.57;;;7.60;99.90;;;7.26;100.00;100726.75;5033393;28;20445;-78
2023/10/15 07:24:11;;;;;;;2.90;0.60;;;7.70;99.90;;;7.27;100.00;100723.00;5038284;28;20038;-78
2023/10/15 07:26:40;;;;;;;2.35;0.70;;;7.80;99.90;;;7.41;100.00;100733.97;5048052;28;20033;-78
2023/10/15 07:29:07;;;;;;;3.30;0.85;;;7.90;99.90;;;7.55;100.00;100733.06;5033119;28;20509;-78
2023/10/15 07:31:33;;;;;;;4.43;0.65;;;8.00;99.90;;;7.63;100.00;100735.66;5041738;28;20040;-78
2023/10/15 07:34:00;;;;;;;2.50;0.75;;;8.10;99.90;;;7.97;100.00;100735.09;5037782;28;20053;-79
2023/10/15 07:36:27;;;;;;;3.40;0.77;;;8.30;99.90;;;8.09;100.00;100730.78;5033764;28;20061;-77
2023/10/15 07:38:54;;;;;;;3.30;1.20;;;8.50;99.90;;;8.00;100.00;100734.69;5051695;28;20041;-76
2023/10/15 07:41:20;;;;;;;2.55;0.52;;;8.50;99.90;;;7.80;100.00;100732.66;5032970;28;20041;-79
2023/10/15 07:43:46;;;;;;;3.00;0.80;;;8.50;99.90;;;7.87;100.00;100747.13;5032137;28;20025;-79
2023/10/15 07:46:12;;;;;;;3.03;0.68;;;8.40;99.90;;;7.83;100.00;100742.31;5033182;28;20048;-78
2023/10/15 07:48:37;;;;;;;4.38;1.05;;;8.40;99.90;;;7.90;100.00;100757.59;5033291;28;20037;-79
2023/10/15 07:51:03;;;;;;;4.97;0.68;;;8.50;99.90;;;8.19;100.00;100772.03;5034181;28;20511;-79
2023/10/15 07:53:29;;;;;;;2.33;0.57;;;8.60;99.90;;;8.31;100.00;100752.47;5048613;28;20413;-78
2023/10/15 07:55:55;;;;;;;2.90;0.80;;;8.80;99.90;;;8.13;100.00;100763.84;5033138;28;20061;-78
2023/10/15 07:58:24;;;;;;;4.78;1.13;;;8.90;99.90;;;8.58;100.00;100767.06;5033291;28;20068;-78
2023/10/15 08:00:52;;;;;;;4.00;0.80;;;9.10;99.90;;;8.74;100.00;100763.19;5048691;28;20493;-79
2023/10/15 08:03:18;;;;;;;;;;;9.30;99.90;;;8.86;100.00;100762.63;5032455;28;20044;-79
2023/10/15 08:05:46;;;;;;;2.70;0.60;;;9.40;99.90;;;8.90;100.00;100772.91;5032878;28;19917;-79
2023/10/15 08:08:11;;;;;;;;;;;9.60;99.90;;;8.48;100.00;100772.03;5034043;28;20517;-78
2023/10/15 08:10:38;;;;;;;2.90;0.60;;;9.40;99.90;;;8.44;100.00;100759.88;5048871;28;19963;-78
2023/10/15 08:13:06;;;;;;;2.17;0.55;;;9.40;99.90;;;8.63;100.00;100778.22;5031922;28;20393;-78
2023/10/15 08:15:33;;;;;;;4.28;0.70;;;9.40;99.90;;;8.90;100.00;100775.63;5037968;28;20099;-77
2023/10/15 08:18:01;;;;;;;3.58;0.77;;;9.40;99.90;;;8.91;100.00;100784.63;5031817;28;20100;-78
2023/10/15 08:20:31;;;;;;;5.00;0.70;;;9.60;99.90;;;8.65;100.00;100782.63;5032695;28;20048;-77
2023/10/15 08:22:57;;;;;;;2.83;0.75;;;9.40;99.90;;;8.47;100.00;100783.94;5039230;28;20060;-77
2023/10/15 08:25:23;;;;;;;3.72;0.93;;;9.30;99.90;;;8.62;100.00;100792.00;5032339;28;20033;-77
2023/10/15 08:27:49;;;;;;;2.75;0.88;;;9.30;99.90;;;8.56;100.00;100796.34;5032122;28;20040;-76
2023/10/15 08:30:17;;;;;;;4.40;0.70;;;9.30;99.90;;;8.89;100.00;100786.69;5032763;28;20120;-77
2023/10/15 08:32:46;;;;;;;4.28;0.93;;;9.50;99.90;;;8.71;100.00;100790.78;5036667;28;20065;-78
2023/10/15 08:35:13;;;;;;;2.67;0.70;;;9.50;99.90;;;8.33;100.00;100799.31;5041353;28;20038;-78
2023/10/15 08:37:41;;;;;;;3.72;0.60;;;9.40;99.90;;;8.09;100.00;100801.44;5033918;28;20481;-76
2023/10/15 08:40:08;;;;;;;2.92;0.70;;;9.00;99.90;;;8.11;100.00;100793.94;5042032;28;20048;-77
2023/10/15 08:42:42;;;;;;;5.60;0.90;;;9.00;99.90;;;8.46;100.00;100807.56;5036497;28;20041;-76
2023/10/15 08:45:08;;;;;;;3.28;0.60;;;9.20;99.90;;;8.87;100.00;100802.41;5052365;28;20091;-77
2023/10/15 08:47:36;;;;;;;2.13;0.63;;;9.50;99.90;;;9.52;100.00;100803.88;5036931;28;20033;-79
2023/10/15 08:50:02;;;;;;;4.43;0.90;;;10.00;99.90;;;9.54;100.00;100816.22;5043460;28;20095;-78
2023/10/15 08:52:30;;;;;;;4.40;0.77;;;10.20;99.90;;;9.27;100.00;100818.88;5044354;28;20080;-80
2023/10/15 08:54:59;;;;;;;3.40;0.90;;;10.20;99.90;;;9.42;100.00;100826.06;5036571;28;20057;-79
2023/10/15 08:57:26;;;;;;;3.97;0.70;;;10.20;99.90;;;8.98;100.00;100811.88;5036225;28;20485;-80
2023/10/15 08:59:54;;;;;;;5.13;0.63;;;9.90;99.90;;;9.05;100.00;100829.06;5036736;28;20026;-80
2023/10/15 09:02:22;;;;;;;;;;;9.90;99.90;;;8.57;100.00;100835.28;5052129;28;20049;-80
2023/10/15 09:04:48;;;;;;;2.92;0.60;;;9.50;99.90;;;8.63;100.00;100829.91;5035873;28;19924;-77
2023/10/15 09:07:14;;;;;;;3.05;0.73;;;9.40;99.90;;;8.20;100.00;100833.50;5036574;28;20087;-79
2023/10/15 09:09:41;;;;;;;2.83;0.60;;;9.20;99.90;;;8.54;100.00;100830.25;5056219;28;20041;-80
2023/10/15 09:12:07;;;;;;;3.65;1.05;;;9.20;99.90;;;8.70;100.00;100813.59;5040700;28;20543;-80
2023/10/15 09:14:49;;;;;;;2.65;0.70;;;9.40;99.90;;;9.06;100.00;100847.06;5036400;28;20025;-79
2023/10/15 09:17:17;;;;;;;2.55;0.75;;;9.60;99.90;;;9.00;100.00;100850.59;5043586;28;20505;-79
2023/10/15 09:19:48;;;;;;;2.70;0.75;;;9.60;99.90;;;9.09;100.00;100832.22;5036732;28;20095;-80
2023/10/15 09:22:14;;;;;;;3.15;0.80;;;9.90;99.90;;;9.21;100.00;100838.75;5039750;28;20053;-79
2023/10/15 09:24:45;;;;;;;3.95;1.20;;;10.00;99.90;;;9.64;100.00;100843.94;5049729;28;20055;-80
2023/10/15 09:27:11;;;;;;;4.38;0.88;;;10.30;99.90;;;9.72;100.00;100834.72;5051281;28;20037;-82
2023/10/15 09:29:38;;;;;;;4.82;1.00;;;10.50;99.90;;;9.55;100.00;100858.78;5034292;28;20083;-83
2023/10/15 09:32:05;;;;;;;3.65;0.77;;;10.30;99.90;;;9.43;100.00;100823.16;5050803;28;20069;-83
2023/10/15 09:34:37;;;;;;;2.10;0.63;;;10.30;99.90;;;9.69;100.00;100840.59;5048260;28;20508;-83
2023/10/15 09:37:07;;;;;;;2.67;0.70;;;10.40;99.90;;;9.15;100.00;100855.91;5049902;28;20036;-81
2023/10/15 09:39:35;;;;;;;2.85;0.75;;;10.10;99.90;;;9.49;100.00;100865.03;5048215;28;20029;-81
2023/10/15 09:42:02;;;;;;;4.25;1.13;;;10.10;99.90;;;9.47;100.00;100861.69;5040222;28;20044;-81
2023/10/15 09:44:29;;;;;;;4.80;0.65;;;10.10;99.90;;;9.71;100.00;100864.91;5060634;28;20504;-80
2023/10/15 09:46:57;;;;;;;5.45;0.75;;;10.20;99.90;;;10.01;100.00;100861.81;5051086;28;20120;-80
2023/10/15 09:49:24;;;;;;;;;;;10.50;99.90;;;9.74;100.00;100856.31;5042992;28;20033;-80
2023/10/15 09:51:51;;;;;;;1.95;0.70;;;;;;;10.67;100.00;100862.88;5059641;28;19940;-82
2023/10/15 09:54:19;;;;;;;3.45;0.65;;;;;;;11.70;100.00;100867.78;5036273;28;20034;-82
2023/10/15 09:56:49;;;;;;;3.17;1.00;;;;;;;12.06;100.00;100866.31;5041008;28;20090;-81
2023/10/15 09:59:15;;;;;;;3.03;0.65;;;;;;;10.18;100.00;100873.13;5035224;28;20037;-81
2023/10/15 10:01:49;;;;;;;3.40;0.65;;;;;;;11.00;100.00;100878.34;5035528;28;20056;-82
2023/10/15 10:04:42;;;;;;;4.25;0.60;;;10.60;99.90;;;12.06;100.00;100880.81;5035742;28;20045;-80
2023/10/15 10:07:58;;;;;;;3.90;0.80;;;12.10;99.90;;;11.25;100.00;100876.78;5035392;28;20160;-82
2023/10/15 10:11:00;;;;;;;2.47;0.80;;;12.10;99.90;;;11.47;100.00;100864.50;5038038;28;20040;-81
2023/10/15 10:13:42;;;;;;;1.58;0.60;;;12.00;99.90;;;11.16;100.00;100865.28;5040615;28;20041;-82
2023/10/15 10:16:25;;;;;;;5.78;1.30;;;12.10;99.90;;;11.30;100.00;100877.81;5038397;28;20044;-82
2023/10/15 10:18:52;;;;;;;2.80;0.70;;;12.10;99.90;;;11.73;100.00;100879.09;5035421;28;20033;-80
2023/10/15 10:21:19;;;;;;;4.87;0.70;;;12.50;99.90;;;10.74;100.00;100893.72;5040648;28;20049;-82
2023/10/15 10:23:49;;;;;;;3.92;0.80;;;;;;;10.10;100.00;100900.59;5050090;28;20463;-81
2023/10/15 10:26:17;;;;;;;3.03;0.70;;;11.90;99.90;;;9.82;100.00;100902.47;5057295;28;20030;-81
2023/10/15 10:28:45;;;;;;;4.20;0.80;;;10.70;99.90;;;9.81;100.00;100900.75;5050716;28;20044;-80
2023/10/15 10:31:13;;;;;;;3.33;1.13;;;;;;;9.69;100.00;100902.41;5050048;28;20041;-81
2023/10/15 10:33:43;;;;;;;;;;;;;;;9.60;100.00;100902.59;5048278;28;20037;-79
2023/10/15 10:36:13;;;;;;;2.60;0.52;;;10.70;99.90;;;9.37;100.00;100883.03;5034020;28;19925;-80
2023/10/15 10:38:39;;;;;;;3.85;0.70;;;10.20;99.90;;;9.33;100.00;100910.66;5049988;28;20454;-80
2023/10/15 10:41:13;;;;;;;2.88;0.80;;;10.10;99.90;;;9.44;100.00;100913.84;5037055;28;20059;-80
2023/10/15 10:43:44;;;;;;;3.88;0.80;;;10.10;99.90;;;9.21;100.00;100902.22;5034594;28;20037;-80
2023/10/15 10:46:23;;;;;;;3.28;0.70;;;10.10;99.90;;;9.84;100.00;100911.25;5037387;28;20090;-81
2023/10/15 10:49:18;;;;;;;3.80;0.50;;;10.30;99.90;;;10.36;100.00;100908.00;5045677;28;20111;-80
2023/10/15 10:52:05;;;;;;;4.15;0.75;;;10.80;99.90;;;10.30;100.00;100893.28;5037557;28;20065;-82
2023/10/15 10:54:31;;;;;;;3.38;0.50;;;11.00;99.90;;;10.30;100.00;100896.03;5034501;28;20052;-81
2023/10/15 10:57:02;;;;;;;5.28;0.90;;;11.10;99.90;;;10.88;100.00;100888.25;5049832;28;20099;-82